Johnny James — WYT8450 — position and weather

sailwx.info

Track history (hours):
 
Tides and Currents Weather Stations Pressure Air Temp Water Temp Dewpoint Dewpoint Depression Visibility Wind Speed Wind Dir Waves Ship Positions

Johnny James

Owner: CALLAIS & SONS INC, CUT OFF, LA. More information available from US FCC via Universal Licensing System and Coast Guard Vessel Documentation Center.

Last reported at 2014-Nov-23 19:28 UTC. Time now 2014-Nov-24 16:18 UTC.
Position N 29°45' W 095°06'.

Length 20 m.

Type: Towing. MMSI: 367005220.

Date/timePositionNaut miles runAvg speedWind from/ knotsBaromVisibWave heightAir tempDewpointWater temp
2014-Nov-23 19:28N 29°45' W 095°06'0 0.1
2014-Nov-23 18:33N 29°46' W 095°06'0 0.1
2014-Nov-23 17:20N 29°45' W 095°06'0 0.2
2014-Nov-23 16:33N 29°46' W 095°06'0 0.0
2014-Nov-23 15:33N 29°46' W 095°06'0 0.0
2014-Nov-23 14:33N 29°46' W 095°06'0 0.0
2014-Nov-23 13:33N 29°46' W 095°06'0 0.2
2014-Nov-23 12:32N 29°45' W 095°06'0 0.1
2014-Nov-23 11:26N 29°46' W 095°06'0 0.0
2014-Nov-23 10:33N 29°46' W 095°06'0 0.0
2014-Nov-23 09:33N 29°46' W 095°06'0 0.0
2014-Nov-23 08:33N 29°46' W 095°06'0 0.0
2014-Nov-23 07:33N 29°46' W 095°06'0 0.0
2014-Nov-23 06:33N 29°46' W 095°06'0 0.0
2014-Nov-23 05:33N 29°46' W 095°06'0 0.0
2014-Nov-23 04:33N 29°46' W 095°06'0 0.0
2014-Nov-23 03:33N 29°46' W 095°06'0 0.0
2014-Nov-23 02:33N 29°46' W 095°06'0 0.0
2014-Nov-23 01:20N 29°46' W 095°06'0 0.0
2014-Nov-23 00:25N 29°46' W 095°06'0 0.0
2014-Nov-22 23:16N 29°46' W 095°06'0 0.0
2014-Nov-22 22:33N 29°46' W 095°06'0 0.0
2014-Nov-22 21:33N 29°46' W 095°06'1 0.6
2014-Nov-22 20:32N 29°46' W 095°06'0 0.0
2014-Nov-22 19:33N 29°46' W 095°06'0 0.0
2014-Nov-22 18:33N 29°46' W 095°06'0 0.0
2014-Nov-22 17:33N 29°46' W 095°06'0 0.0
2014-Nov-22 16:33N 29°46' W 095°06'0 0.0
2014-Nov-22 15:33N 29°46' W 095°06'0 0.0
2014-Nov-22 14:33N 29°46' W 095°06'0 0.0
2014-Nov-22 13:33N 29°46' W 095°06'0 0.0
2014-Nov-21 23:27N 29°46' W 095°06'2 1.7
2014-Nov-21 22:33N 29°46' W 095°05'1 0.2
2014-Nov-21 17:32N 29°47' W 095°04'2 2.5
2014-Nov-21 16:33N 29°45' W 095°06'2 2.3
2014-Nov-21 15:33N 29°47' W 095°04'3 3.0
2014-Nov-21 14:33N 29°45' W 095°06'0 0.3
2014-Nov-21 13:33N 29°45' W 095°06'0 0.0
2014-Nov-21 04:18N 29°45' W 095°06'0 0.0
2014-Nov-21 03:29N 29°45' W 095°06'0 0.0
2014-Nov-21 01:16N 29°45' W 095°06'0 0.0
2014-Nov-20 23:29N 29°45' W 095°06'0 0.0
2014-Nov-20 22:28N 29°45' W 095°06'0 0.0
2014-Nov-20 21:29N 29°45' W 095°06'0 0.0
2014-Nov-20 20:33N 29°45' W 095°06'0 0.0
2014-Nov-20 19:33N 29°45' W 095°06'0 0.0
2014-Nov-20 18:33N 29°45' W 095°06'0 0.0
2014-Nov-20 17:33N 29°45' W 095°06'0 0.0
2014-Nov-20 16:33N 29°45' W 095°06'0 0.0
2014-Nov-20 15:33N 29°45' W 095°06'0 0.0
2014-Nov-20 14:33N 29°45' W 095°06'0 0.0
2014-Nov-20 13:33N 29°45' W 095°06'0 0.0
2014-Nov-20 12:33N 29°45' W 095°06'0 0.0
2014-Nov-20 11:29N 29°45' W 095°06'0 0.0
2014-Nov-20 10:33N 29°45' W 095°06'0 0.0
2014-Nov-20 09:33N 29°45' W 095°06'0 0.0
2014-Nov-20 08:31N 29°45' W 095°06'0 0.0
2014-Nov-20 07:33N 29°45' W 095°06'0 0.0
2014-Nov-20 06:33N 29°45' W 095°06'0 0.0
2014-Nov-20 05:33N 29°45' W 095°06'0 0.0
2014-Nov-20 04:32N 29°45' W 095°06'0 0.0
2014-Nov-20 03:33N 29°45' W 095°06'0 0.0
2014-Nov-20 02:33N 29°45' W 095°06'0 0.1
2014-Nov-20 01:33N 29°45' W 095°06'0 0.0
2014-Nov-20 00:33N 29°45' W 095°06'0 0.5
2014-Nov-19 23:29N 29°45' W 095°06'0 0.3
2014-Nov-19 22:30N 29°45' W 095°06'0 0.0
2014-Nov-19 21:33N 29°45' W 095°06'0 0.0
2014-Nov-19 20:31N 29°45' W 095°06'0 0.0
2014-Nov-19 19:33N 29°45' W 095°06'0 0.4
2014-Nov-19 18:34N 29°46' W 095°06'0 0.0
2014-Nov-19 17:34N 29°46' W 095°06'0 0.0
2014-Nov-19 16:34N 29°46' W 095°06'0 0.0
2014-Nov-19 15:34N 29°46' W 095°06'0 0.0
2014-Nov-19 14:34N 29°46' W 095°06'0 0.4
2014-Nov-19 13:34N 29°45' W 095°06'1 0.8
2014-Nov-19 12:19N 29°45' W 095°06'3 3.2
2014-Nov-19 11:29N 29°44' W 095°09'4 0.1
2014-Nov-17 15:19N 29°43' W 095°14'0 0.0
2014-Nov-16 21:32N 29°43' W 095°14'0 0.0
2014-Nov-16 20:19N 29°43' W 095°14'2 3.1
2014-Nov-16 19:33N 29°44' W 095°12'5 4.8
2014-Nov-16 18:32N 29°45' W 095°06'1 1.2
2014-Nov-16 17:33N 29°45' W 095°06'0 0.0
2014-Nov-16 16:33N 29°46' W 095°06'0 0.0
2014-Nov-16 15:33N 29°46' W 095°06'0 0.0
2014-Nov-16 14:33N 29°46' W 095°06'0 0.0
2014-Nov-16 13:33N 29°46' W 095°06'0 0.0
2014-Nov-16 00:12N 29°46' W 095°06'0 0.0
2014-Nov-15 23:14N 29°46' W 095°06'0 0.0
2014-Nov-15 22:33N 29°46' W 095°06'0 0.0
2014-Nov-15 21:33N 29°46' W 095°06'0 0.0
2014-Nov-15 20:33N 29°46' W 095°06'0 0.0
2014-Nov-15 19:33N 29°46' W 095°06'0 0.0
2014-Nov-15 18:33N 29°46' W 095°06'0 0.0
2014-Nov-15 17:33N 29°46' W 095°06'0 0.0
2014-Nov-15 16:33N 29°46' W 095°06'0 0.0
2014-Nov-15 15:33N 29°46' W 095°06'0 0.0
2014-Nov-15 14:33N 29°46' W 095°06'0 0.0
2014-Nov-15 13:34N 29°46' W 095°06'0 0.0
2014-Nov-15 12:31N 29°46' W 095°06'0 0.0
2014-Nov-15 11:32N 29°46' W 095°06'0 0.0
2014-Nov-15 10:33N 29°46' W 095°06'0 0.0
2014-Nov-15 09:33N 29°46' W 095°06'0 0.0
2014-Nov-15 08:33N 29°46' W 095°06'0 0.0
2014-Nov-15 07:33N 29°46' W 095°06'0 0.0
2014-Nov-15 06:32N 29°46' W 095°06'0 0.0
2014-Nov-15 05:27N 29°46' W 095°06'0 0.0
2014-Nov-15 04:33N 29°46' W 095°06'0 0.0
2014-Nov-15 03:24N 29°46' W 095°06'0 0.0
2014-Nov-15 02:29N 29°46' W 095°06'0 0.0
2014-Nov-15 01:23N 29°46' W 095°06'0 0.0
2014-Nov-14 23:33N 29°46' W 095°06'0 0.0
2014-Nov-14 22:33N 29°46' W 095°06'0 0.0
2014-Nov-14 21:33N 29°46' W 095°06'0 0.0
2014-Nov-14 20:33N 29°46' W 095°06'0 0.0
2014-Nov-14 19:33N 29°46' W 095°06'0 0.0
2014-Nov-14 18:33N 29°46' W 095°06'0 0.0
2014-Nov-14 17:33N 29°46' W 095°06'0 0.0
2014-Nov-14 16:33N 29°46' W 095°06'0 0.0
2014-Nov-14 15:33N 29°46' W 095°06'0 0.0
2014-Nov-14 14:33N 29°46' W 095°06'0 0.0
2014-Nov-14 12:31N 29°46' W 095°06'0 0.0
2014-Nov-14 11:33N 29°46' W 095°06'0 0.0
2014-Nov-14 10:33N 29°46' W 095°06'0 0.0
2014-Nov-14 09:33N 29°46' W 095°06'0 0.0
2014-Nov-14 08:31N 29°46' W 095°06'0 0.1
2014-Nov-14 07:33N 29°46' W 095°06'1 0.9
2014-Nov-14 06:22N 29°46' W 095°05'0 0.2
2014-Nov-14 04:22N 29°46' W 095°05'1 1.5
2014-Nov-14 03:27N 29°46' W 095°06'3 2.6
2014-Nov-14 02:29N 29°47' W 095°04'2 2.5
2014-Nov-14 01:33N 29°45' W 095°06'0 0.0
2014-Nov-13 23:14N 29°45' W 095°06'  
Track history (hours):
 
Tides and Currents Weather Stations Pressure Air Temp Water Temp Dewpoint Dewpoint Depression Visibility Wind Speed Wind Dir Waves Ship Positions

Johnny James

Owner: CALLAIS & SONS INC, CUT OFF, LA. More information available from US FCC via Universal Licensing System and Coast Guard Vessel Documentation Center.

Last reported at 2014-Nov-23 19:28 UTC. Time now 2014-Nov-24 16:18 UTC.
Position N 29°45' W 095°06'.

Length 20 m.

Type: Towing. MMSI: 367005220.

Date/timePositionNaut miles runAvg speedWind from/ knotsBaromVisibWave heightAir tempDewpointWater temp
2014-Nov-23 19:28N 29°45' W 095°06'0 0.1
2014-Nov-23 18:33N 29°46' W 095°06'0 0.1
2014-Nov-23 17:20N 29°45' W 095°06'0 0.2
2014-Nov-23 16:33N 29°46' W 095°06'0 0.0
2014-Nov-23 15:33N 29°46' W 095°06'0 0.0
2014-Nov-23 14:33N 29°46' W 095°06'0 0.0
2014-Nov-23 13:33N 29°46' W 095°06'0 0.2
2014-Nov-23 12:32N 29°45' W 095°06'0 0.1
2014-Nov-23 11:26N 29°46' W 095°06'0 0.0
2014-Nov-23 10:33N 29°46' W 095°06'0 0.0
2014-Nov-23 09:33N 29°46' W 095°06'0 0.0
2014-Nov-23 08:33N 29°46' W 095°06'0 0.0
2014-Nov-23 07:33N 29°46' W 095°06'0 0.0
2014-Nov-23 06:33N 29°46' W 095°06'0 0.0
2014-Nov-23 05:33N 29°46' W 095°06'0 0.0
2014-Nov-23 04:33N 29°46' W 095°06'0 0.0
2014-Nov-23 03:33N 29°46' W 095°06'0 0.0
2014-Nov-23 02:33N 29°46' W 095°06'0 0.0
2014-Nov-23 01:20N 29°46' W 095°06'0 0.0
2014-Nov-23 00:25N 29°46' W 095°06'0 0.0
2014-Nov-22 23:16N 29°46' W 095°06'0 0.0
2014-Nov-22 22:33N 29°46' W 095°06'0 0.0
2014-Nov-22 21:33N 29°46' W 095°06'1 0.6
2014-Nov-22 20:32N 29°46' W 095°06'0 0.0
2014-Nov-22 19:33N 29°46' W 095°06'0 0.0
2014-Nov-22 18:33N 29°46' W 095°06'0 0.0
2014-Nov-22 17:33N 29°46' W 095°06'0 0.0
2014-Nov-22 16:33N 29°46' W 095°06'0 0.0
2014-Nov-22 15:33N 29°46' W 095°06'0 0.0
2014-Nov-22 14:33N 29°46' W 095°06'0 0.0
2014-Nov-22 13:33N 29°46' W 095°06'0 0.0
2014-Nov-21 23:27N 29°46' W 095°06'2 1.7
2014-Nov-21 22:33N 29°46' W 095°05'1 0.2
2014-Nov-21 17:32N 29°47' W 095°04'2 2.5
2014-Nov-21 16:33N 29°45' W 095°06'2 2.3
2014-Nov-21 15:33N 29°47' W 095°04'3 3.0
2014-Nov-21 14:33N 29°45' W 095°06'0 0.3
2014-Nov-21 13:33N 29°45' W 095°06'0 0.0
2014-Nov-21 04:18N 29°45' W 095°06'0 0.0
2014-Nov-21 03:29N 29°45' W 095°06'0 0.0
2014-Nov-21 01:16N 29°45' W 095°06'0 0.0
2014-Nov-20 23:29N 29°45' W 095°06'0 0.0
2014-Nov-20 22:28N 29°45' W 095°06'0 0.0
2014-Nov-20 21:29N 29°45' W 095°06'0 0.0
2014-Nov-20 20:33N 29°45' W 095°06'0 0.0
2014-Nov-20 19:33N 29°45' W 095°06'0 0.0
2014-Nov-20 18:33N 29°45' W 095°06'0 0.0
2014-Nov-20 17:33N 29°45' W 095°06'0 0.0
2014-Nov-20 16:33N 29°45' W 095°06'0 0.0
2014-Nov-20 15:33N 29°45' W 095°06'0 0.0
2014-Nov-20 14:33N 29°45' W 095°06'0 0.0
2014-Nov-20 13:33N 29°45' W 095°06'0 0.0
2014-Nov-20 12:33N 29°45' W 095°06'0 0.0
2014-Nov-20 11:29N 29°45' W 095°06'0 0.0
2014-Nov-20 10:33N 29°45' W 095°06'0 0.0
2014-Nov-20 09:33N 29°45' W 095°06'0 0.0
2014-Nov-20 08:31N 29°45' W 095°06'0 0.0
2014-Nov-20 07:33N 29°45' W 095°06'0 0.0
2014-Nov-20 06:33N 29°45' W 095°06'0 0.0
2014-Nov-20 05:33N 29°45' W 095°06'0 0.0
2014-Nov-20 04:32N 29°45' W 095°06'0 0.0
2014-Nov-20 03:33N 29°45' W 095°06'0 0.0
2014-Nov-20 02:33N 29°45' W 095°06'0 0.1
2014-Nov-20 01:33N 29°45' W 095°06'0 0.0
2014-Nov-20 00:33N 29°45' W 095°06'0 0.5
2014-Nov-19 23:29N 29°45' W 095°06'0 0.3
2014-Nov-19 22:30N 29°45' W 095°06'0 0.0
2014-Nov-19 21:33N 29°45' W 095°06'0 0.0
2014-Nov-19 20:31N 29°45' W 095°06'0 0.0
2014-Nov-19 19:33N 29°45' W 095°06'0 0.4
2014-Nov-19 18:34N 29°46' W 095°06'0 0.0
2014-Nov-19 17:34N 29°46' W 095°06'0 0.0
2014-Nov-19 16:34N 29°46' W 095°06'0 0.0
2014-Nov-19 15:34N 29°46' W 095°06'0 0.0
2014-Nov-19 14:34N 29°46' W 095°06'0 0.4
2014-Nov-19 13:34N 29°45' W 095°06'1 0.8
2014-Nov-19 12:19N 29°45' W 095°06'3 3.2
2014-Nov-19 11:29N 29°44' W 095°09'4 0.1
2014-Nov-17 15:19N 29°43' W 095°14'0 0.0
2014-Nov-16 21:32N 29°43' W 095°14'0 0.0
2014-Nov-16 20:19N 29°43' W 095°14'2 3.1
2014-Nov-16 19:33N 29°44' W 095°12'5 4.8
2014-Nov-16 18:32N 29°45' W 095°06'1 1.2
2014-Nov-16 17:33N 29°45' W 095°06'0 0.0
2014-Nov-16 16:33N 29°46' W 095°06'0 0.0
2014-Nov-16 15:33N 29°46' W 095°06'0 0.0
2014-Nov-16 14:33N 29°46' W 095°06'0 0.0
2014-Nov-16 13:33N 29°46' W 095°06'0 0.0
2014-Nov-16 00:12N 29°46' W 095°06'0 0.0
2014-Nov-15 23:14N 29°46' W 095°06'0 0.0
2014-Nov-15 22:33N 29°46' W 095°06'0 0.0
2014-Nov-15 21:33N 29°46' W 095°06'0 0.0
2014-Nov-15 20:33N 29°46' W 095°06'0 0.0
2014-Nov-15 19:33N 29°46' W 095°06'0 0.0
2014-Nov-15 18:33N 29°46' W 095°06'0 0.0
2014-Nov-15 17:33N 29°46' W 095°06'0 0.0
2014-Nov-15 16:33N 29°46' W 095°06'0 0.0
2014-Nov-15 15:33N 29°46' W 095°06'0 0.0
2014-Nov-15 14:33N 29°46' W 095°06'0 0.0
2014-Nov-15 13:34N 29°46' W 095°06'0 0.0
2014-Nov-15 12:31N 29°46' W 095°06'0 0.0
2014-Nov-15 11:32N 29°46' W 095°06'0 0.0
2014-Nov-15 10:33N 29°46' W 095°06'0 0.0
2014-Nov-15 09:33N 29°46' W 095°06'0 0.0
2014-Nov-15 08:33N 29°46' W 095°06'0 0.0
2014-Nov-15 07:33N 29°46' W 095°06'0 0.0
2014-Nov-15 06:32N 29°46' W 095°06'0 0.0
2014-Nov-15 05:27N 29°46' W 095°06'0 0.0
2014-Nov-15 04:33N 29°46' W 095°06'0 0.0
2014-Nov-15 03:24N 29°46' W 095°06'0 0.0
2014-Nov-15 02:29N 29°46' W 095°06'0 0.0
2014-Nov-15 01:23N 29°46' W 095°06'0 0.0
2014-Nov-14 23:33N 29°46' W 095°06'0 0.0
2014-Nov-14 22:33N 29°46' W 095°06'0 0.0
2014-Nov-14 21:33N 29°46' W 095°06'0 0.0
2014-Nov-14 20:33N 29°46' W 095°06'0 0.0
2014-Nov-14 19:33N 29°46' W 095°06'0 0.0
2014-Nov-14 18:33N 29°46' W 095°06'0 0.0
2014-Nov-14 17:33N 29°46' W 095°06'0 0.0
2014-Nov-14 16:33N 29°46' W 095°06'0 0.0
2014-Nov-14 15:33N 29°46' W 095°06'0 0.0
2014-Nov-14 14:33N 29°46' W 095°06'0 0.0
2014-Nov-14 12:31N 29°46' W 095°06'0 0.0
2014-Nov-14 11:33N 29°46' W 095°06'0 0.0
2014-Nov-14 10:33N 29°46' W 095°06'0 0.0
2014-Nov-14 09:33N 29°46' W 095°06'0 0.0
2014-Nov-14 08:31N 29°46' W 095°06'0 0.1
2014-Nov-14 07:33N 29°46' W 095°06'1 0.9
2014-Nov-14 06:22N 29°46' W 095°05'0 0.2
2014-Nov-14 04:22N 29°46' W 095°05'1 1.5
2014-Nov-14 03:27N 29°46' W 095°06'3 2.6
2014-Nov-14 02:29N 29°47' W 095°04'2 2.5
2014-Nov-14 01:33N 29°45' W 095°06'0 0.0
2014-Nov-13 23:14N 29°45' W 095°06'  

Dump ship's entire track history